Fire Island Natl Seashore, New York
Current Conditions -  °F | °C
As of 1:56 PM on Friday 24 Oct 2014 (Local Time) from KISP Reporting Station
Overcast Overcast  
Wind Chill: 56°   Ceiling: 2900
Heat Index: 56°   Visibility: 10mi
Dew Point: 44°   Wind: 15mph
Humidity: 64%   Direction: 300°WNW
Pressure: 29.74"   Gusts: 21mph
Location:  40.67°N, 73.04°W
Report Text: KISP 241756Z 30013G18KT 10SM FEW025 BKN029 OVC250 13/07 A2974 RMK AO2 PK WND 34026/1703 SLP070 60005 T01330067 10133 20100 56012
Loading
Personal Weather Stations






























Interactive Weather Map
Tropical Storm Tracking
New forecast layout! Learn more

10-Day Weather Forecast

Advertisements
Track Severe Weather on mobile